sensor_id;sensor_type;location;lat;lon;timestamp;pressure;altitude;pressure_sealevel;temperature;humidity
74075;BME280;62428;51.412;5.432;2023-08-01T00:01:08;99779.44;;;16.37;100.00
74075;BME280;62428;51.412;5.432;2023-08-01T00:03:33;99782.94;;;16.38;100.00
74075;BME280;62428;51.412;5.432;2023-08-01T00:05:58;99776.72;;;16.37;100.00
74075;BME280;62428;51.412;5.432;2023-08-01T00:08:24;99782.94;;;16.38;100.00
74075;BME280;62428;51.412;5.432;2023-08-01T00:10:49;99774.81;;;16.38;100.00
74075;BME280;62428;51.412;5.432;2023-08-01T00:13:15;99769.75;;;16.36;100.00
74075;BME280;62428;51.412;5.432;2023-08-01T00:15:40;99764.34;;;16.36;100.00
74075;BME280;62428;51.412;5.432;2023-08-01T00:18:05;99775.53;;;16.34;100.00
74075;BME280;62428;51.412;5.432;2023-08-01T00:20:31;99772.03;;;16.34;100.00
74075;BME280;62428;51.412;5.432;2023-08-01T00:22:56;99774.75;;;16.34;100.00
74075;BME280;62428;51.412;5.432;2023-08-01T00:25:22;99778.94;;;16.31;100.00
74075;BME280;62428;51.412;5.432;2023-08-01T00:27:47;99771.16;;;16.30;100.00
74075;BME280;62428;51.412;5.432;2023-08-01T00:30:13;99772.59;;;16.24;100.00
74075;BME280;62428;51.412;5.432;2023-08-01T00:32:38;99767.88;;;16.21;100.00
74075;BME280;62428;51.412;5.432;2023-08-01T00:35:04;99759.31;;;16.19;100.00
74075;BME280;62428;51.412;5.432;2023-08-01T00:37:30;99766.59;;;16.14;100.00
74075;BME280;62428;51.412;5.432;2023-08-01T00:39:55;99765.38;;;16.12;100.00
74075;BME280;62428;51.412;5.432;2023-08-01T00:42:21;99760.66;;;16.09;100.00
74075;BME280;62428;51.412;5.432;2023-08-01T00:44:46;99766.88;;;16.09;100.00
74075;BME280;62428;51.412;5.432;2023-08-01T00:47:14;99760.59;;;16.05;100.00
74075;BME280;62428;51.412;5.432;2023-08-01T00:49:40;99767.88;;;16.01;100.00
74075;BME280;62428;51.412;5.432;2023-08-01T00:52:06;99771.28;;;15.98;100.00
74075;BME280;62428;51.412;5.432;2023-08-01T00:54:32;99771.28;;;15.98;100.00
74075;BME280;62428;51.412;5.432;2023-08-01T00:57:02;99760.09;;;16.00;100.00
74075;BME280;62428;51.412;5.432;2023-08-01T00:59:28;99764.72;;;15.99;100.00
74075;BME280;62428;51.412;5.432;2023-08-01T01:01:54;99760.44;;;15.98;100.00
74075;BME280;62428;51.412;5.432;2023-08-01T01:04:19;99755.03;;;15.98;100.00
74075;BME280;62428;51.412;5.432;2023-08-01T01:06:48;99758.84;;;15.97;100.00
74075;BME280;62428;51.412;5.432;2023-08-01T01:09:17;99755.28;;;15.93;100.00
74075;BME280;62428;51.412;5.432;2023-08-01T01:11:44;99750.22;;;15.91;100.00
74075;BME280;62428;51.412;5.432;2023-08-01T01:14:09;99755.13;;;15.86;100.00
74075;BME280;62428;51.412;5.432;2023-08-01T01:16:35;99754.28;;;15.82;100.00
74075;BME280;62428;51.412;5.432;2023-08-01T01:19:00;99751.91;;;15.80;100.00
74075;BME280;62428;51.412;5.432;2023-08-01T01:21:25;99754.19;;;15.78;100.00
74075;BME280;62428;51.412;5.432;2023-08-01T01:23:52;99754.88;;;15.75;100.00
74075;BME280;62428;51.412;5.432;2023-08-01T01:26:18;99754.78;;;15.71;100.00
74075;BME280;62428;51.412;5.432;2023-08-01T01:28:48;99762.81;;;15.68;100.00
74075;BME280;62428;51.412;5.432;2023-08-01T01:31:15;99768.16;;;15.64;100.00
74075;BME280;62428;51.412;5.432;2023-08-01T01:33:41;99757.25;;;15.61;100.00
74075;BME280;62428;51.412;5.432;2023-08-01T01:36:07;99758.72;;;15.58;100.00
74075;BME280;62428;51.412;5.432;2023-08-01T01:38:32;99752.88;;;15.56;100.00
74075;BME280;62428;51.412;5.432;2023-08-01T01:40:57;99751.31;;;15.55;100.00
74075;BME280;62428;51.412;5.432;2023-08-01T01:43:23;99753.16;;;15.51;100.00
74075;BME280;62428;51.412;5.432;2023-08-01T01:45:48;99751.13;;;15.48;100.00
74075;BME280;62428;51.412;5.432;2023-08-01T01:48:13;99755.00;;;15.47;100.00
74075;BME280;62428;51.412;5.432;2023-08-01T01:50:39;99754.56;;;15.45;100.00
74075;BME280;62428;51.412;5.432;2023-08-01T01:53:04;99753.78;;;15.44;100.00
74075;BME280;62428;51.412;5.432;2023-08-01T01:55:29;99752.63;;;15.45;100.00
74075;BME280;62428;51.412;5.432;2023-08-01T01:57:55;99754.56;;;15.45;100.00
74075;BME280;62428;51.412;5.432;2023-08-01T02:00:21;99761.09;;;15.44;100.00
74075;BME280;62428;51.412;5.432;2023-08-01T02:02:47;99747.56;;;15.44;100.00
74075;BME280;62428;51.412;5.432;2023-08-01T02:05:12;99757.97;;;15.42;100.00
74075;BME280;62428;51.412;5.432;2023-08-01T02:07:37;99754.47;;;15.41;100.00
74075;BME280;62428;51.412;5.432;2023-08-01T02:10:03;99747.81;;;15.38;100.00
74075;BME280;62428;51.412;5.432;2023-08-01T02:12:28;99749.75;;;15.38;100.00
74075;BME280;62428;51.412;5.432;2023-08-01T02:14:57;99745.41;;;15.33;100.00
74075;BME280;62428;51.412;5.432;2023-08-01T02:17:23;99743.03;;;15.32;100.00
74075;BME280;62428;51.412;5.432;2023-08-01T02:19:49;99749.59;;;15.31;100.00
74075;BME280;62428;51.412;5.432;2023-08-01T02:22:14;99743.41;;;15.30;100.00
74075;BME280;62428;51.412;5.432;2023-08-01T02:24:40;99749.50;;;15.27;100.00
74075;BME280;62428;51.412;5.432;2023-08-01T02:27:05;99757.19;;;15.25;100.00
74075;BME280;62428;51.412;5.432;2023-08-01T02:29:30;99755.97;;;15.23;100.00
74075;BME280;62428;51.412;5.432;2023-08-01T02:31:56;99751.25;;;15.19;100.00
74075;BME280;62428;51.412;5.432;2023-08-01T02:34:21;99750.47;;;15.19;100.00
74075;BME280;62428;51.412;5.432;2023-08-01T02:36:47;99765.56;;;15.20;100.00
74075;BME280;62428;51.412;5.432;2023-08-01T02:39:12;99760.47;;;15.18;100.00
74075;BME280;62428;51.412;5.432;2023-08-01T02:41:37;99763.56;;;15.17;100.00
74075;BME280;62428;51.412;5.432;2023-08-01T02:44:03;99769.75;;;15.17;100.00
74075;BME280;62428;51.412;5.432;2023-08-01T02:46:28;99769.75;;;15.17;100.00
74075;BME280;62428;51.412;5.432;2023-08-01T02:48:55;99780.91;;;15.16;100.00
74075;BME280;62428;51.412;5.432;2023-08-01T02:51:20;99775.50;;;15.16;100.00
74075;BME280;62428;51.412;5.432;2023-08-01T02:53:45;99773.56;;;15.16;100.00
74075;BME280;62428;51.412;5.432;2023-08-01T02:56:11;99776.28;;;15.16;100.00
74075;BME280;62428;51.412;5.432;2023-08-01T02:58:36;99775.50;;;15.16;100.00
74075;BME280;62428;51.412;5.432;2023-08-01T03:01:06;99775.50;;;15.16;100.00
74075;BME280;62428;51.412;5.432;2023-08-01T03:03:34;99771.69;;;15.17;100.00
74075;BME280;62428;51.412;5.432;2023-08-01T03:06:01;99775.16;;;15.17;100.00
74075;BME280;62428;51.412;5.432;2023-08-01T03:08:26;99768.59;;;15.18;100.00
74075;BME280;62428;51.412;5.432;2023-08-01T03:10:53;99772.88;;;15.19;100.00
74075;BME280;62428;51.412;5.432;2023-08-01T03:13:19;99768.25;;;15.20;100.00
74075;BME280;62428;51.412;5.432;2023-08-01T03:15:44;99762.84;;;15.20;100.00
74075;BME280;62428;51.412;5.432;2023-08-01T03:18:09;99767.47;;;15.19;100.00
74075;BME280;62428;51.412;5.432;2023-08-01T03:20:35;99769.06;;;15.21;100.00
74075;BME280;62428;51.412;5.432;2023-08-01T03:23:00;99768.59;;;15.18;100.00
74075;BME280;62428;51.412;5.432;2023-08-01T03:25:26;99768.59;;;15.18;100.00
74075;BME280;62428;51.412;5.432;2023-08-01T03:27:51;99768.16;;;15.16;100.00
74075;BME280;62428;51.412;5.432;2023-08-01T03:30:16;99766.25;;;15.17;100.00
74075;BME280;62428;51.412;5.432;2023-08-01T03:32:42;99767.03;;;15.17;100.00
74075;BME280;62428;51.412;5.432;2023-08-01T03:35:07;99772.44;;;15.17;100.00
74075;BME280;62428;51.412;5.432;2023-08-01T03:37:33;99777.88;;;15.17;100.00
74075;BME280;62428;51.412;5.432;2023-08-01T03:39:58;99776.28;;;15.16;100.00
74075;BME280;62428;51.412;5.432;2023-08-01T03:42:23;99771.69;;;15.17;100.00
74075;BME280;62428;51.412;5.432;2023-08-01T03:44:49;99785.19;;;15.17;100.00
74075;BME280;62428;51.412;5.432;2023-08-01T03:47:14;99775.94;;;15.18;100.00
74075;BME280;62428;51.412;5.432;2023-08-01T03:49:39;99778.66;;;15.18;100.00
74075;BME280;62428;51.412;5.432;2023-08-01T03:52:05;99777.88;;;15.17;100.00
74075;BME280;62428;51.412;5.432;2023-08-01T03:54:31;99778.66;;;15.18;100.00
74075;BME280;62428;51.412;5.432;2023-08-01T03:56:56;99773.22;;;15.18;100.00
74075;BME280;62428;51.412;5.432;2023-08-01T03:59:22;99775.94;;;15.18;100.00
74075;BME280;62428;51.412;5.432;2023-08-01T04:01:47;99777.88;;;15.17;100.00
74075;BME280;62428;51.412;5.432;2023-08-01T04:04:13;99784.06;;;15.18;100.00
74075;BME280;62428;51.412;5.432;2023-08-01T04:06:38;99778.97;;;15.16;100.00
74075;BME280;62428;51.412;5.432;2023-08-01T04:09:04;99775.50;;;15.16;100.00
74075;BME280;62428;51.412;5.432;2023-08-01T04:11:29;99775.16;;;15.17;100.00
74075;BME280;62428;51.412;5.432;2023-08-01T04:13:55;99773.22;;;15.18;100.00
74075;BME280;62428;51.412;5.432;2023-08-01T04:16:21;99776.72;;;15.18;100.00
74075;BME280;62428;51.412;5.432;2023-08-01T04:18:46;99777.88;;;15.17;100.00
74075;BME280;62428;51.412;5.432;2023-08-01T04:21:13;99790.63;;;15.17;100.00
74075;BME280;62428;51.412;5.432;2023-08-01T04:23:39;99781.69;;;15.16;100.00
74075;BME280;62428;51.412;5.432;2023-08-01T04:26:05;99783.28;;;15.17;100.00
74075;BME280;62428;51.412;5.432;2023-08-01T04:28:32;99779.78;;;15.17;100.00
74075;BME280;62428;51.412;5.432;2023-08-01T04:30:57;99779.78;;;15.17;100.00
74075;BME280;62428;51.412;5.432;2023-08-01T04:33:22;99777.44;;;15.15;100.00
74075;BME280;62428;51.412;5.432;2023-08-01T04:35:48;99770.09;;;15.16;100.00
74075;BME280;62428;51.412;5.432;2023-08-01T04:38:14;99774.72;;;15.15;100.00
74075;BME280;62428;51.412;5.432;2023-08-01T04:40:40;99773.56;;;15.16;100.00
74075;BME280;62428;51.412;5.432;2023-08-01T04:43:05;99767.03;;;15.17;100.00
74075;BME280;62428;51.412;5.432;2023-08-01T04:45:31;99771.69;;;15.17;100.00
74075;BME280;62428;51.412;5.432;2023-08-01T04:47:56;99773.22;;;15.18;100.00
74075;BME280;62428;51.412;5.432;2023-08-01T04:50:22;99780.56;;;15.17;100.00
74075;BME280;62428;51.412;5.432;2023-08-01T04:52:47;99789.47;;;15.18;100.00
74075;BME280;62428;51.412;5.432;2023-08-01T04:55:12;99791.03;;;15.19;100.00
74075;BME280;62428;51.412;5.432;2023-08-01T04:57:38;99792.59;;;15.20;100.00
74075;BME280;62428;51.412;5.432;2023-08-01T05:00:04;99793.03;;;15.22;100.00
74075;BME280;62428;51.412;5.432;2023-08-01T05:02:29;99795.75;;;15.22;100.00
74075;BME280;62428;51.412;5.432;2023-08-01T05:04:55;99796.22;;;15.24;100.00
74075;BME280;62428;51.412;5.432;2023-08-01T05:07:20;99796.66;;;15.26;100.00
74075;BME280;62428;51.412;5.432;2023-08-01T05:09:46;99798.19;;;15.27;100.00
74075;BME280;62428;51.412;5.432;2023-08-01T05:12:11;99798.19;;;15.27;100.00
74075;BME280;62428;51.412;5.432;2023-08-01T05:14:37;99799.34;;;15.26;100.00
74075;BME280;62428;51.412;5.432;2023-08-01T05:17:02;99790.41;;;15.26;100.00
74075;BME280;62428;51.412;5.432;2023-08-01T05:19:28;99793.13;;;15.26;100.00
74075;BME280;62428;51.412;5.432;2023-08-01T05:21:53;99795.50;;;15.27;100.00
74075;BME280;62428;51.412;5.432;2023-08-01T05:24:20;99796.31;;;15.28;100.00
74075;BME280;62428;51.412;5.432;2023-08-01T05:26:45;99801.72;;;15.28;100.00
74075;BME280;62428;51.412;5.432;2023-08-01T05:29:11;99806.31;;;15.27;100.00
74075;BME280;62428;51.412;5.432;2023-08-01T05:31:36;99799.34;;;15.26;100.00
74075;BME280;62428;51.412;5.432;2023-08-01T05:34:01;99803.94;;;15.26;100.00
74075;BME280;62428;51.412;5.432;2023-08-01T05:36:27;99797.41;;;15.27;100.00
74075;BME280;62428;51.412;5.432;2023-08-01T05:38:52;99803.25;;;15.29;100.00
74075;BME280;62428;51.412;5.432;2023-08-01T05:41:17;99808.34;;;15.30;100.00
74075;BME280;62428;51.412;5.432;2023-08-01T05:43:43;99813.06;;;15.33;100.00
74075;BME280;62428;51.412;5.432;2023-08-01T05:46:08;99807.75;;;15.37;100.00
74075;BME280;62428;51.412;5.432;2023-08-01T05:48:34;99804.66;;;15.38;100.00
74075;BME280;62428;51.412;5.432;2023-08-01T05:50:59;99812.09;;;15.42;100.00
74075;BME280;62428;51.412;5.432;2023-08-01T05:53:24;99806.41;;;15.47;100.00
74075;BME280;62428;51.412;5.432;2023-08-01T05:55:50;99814.97;;;15.49;100.00
74075;BME280;62428;51.412;5.432;2023-08-01T05:58:16;99825.88;;;15.52;100.00
74075;BME280;62428;51.412;5.432;2023-08-01T06:00:41;99818.19;;;15.54;100.00
74075;BME280;62428;51.412;5.432;2023-08-01T06:03:06;99823.34;;;15.60;100.00
74075;BME280;62428;51.412;5.432;2023-08-01T06:05:32;99817.25;;;15.63;100.00
74075;BME280;62428;51.412;5.432;2023-08-01T06:07:57;99816.19;;;15.67;100.00
74075;BME280;62428;51.412;5.432;2023-08-01T06:10:23;99820.22;;;15.73;100.00
74075;BME280;62428;51.412;5.432;2023-08-01T06:12:48;99825.75;;;15.77;100.00
74075;BME280;62428;51.412;5.432;2023-08-01T06:15:13;99822.41;;;15.84;100.00
74075;BME280;62428;51.412;5.432;2023-08-01T06:17:39;99829.50;;;15.88;100.00
74075;BME280;62428;51.412;5.432;2023-08-01T06:20:05;99828.34;;;15.89;100.00
74075;BME280;62428;51.412;5.432;2023-08-01T06:22:30;99833.31;;;15.87;100.00
74075;BME280;62428;51.412;5.432;2023-08-01T06:24:56;99832.88;;;15.85;100.00
74075;BME280;62428;51.412;5.432;2023-08-01T06:27:21;99832.88;;;15.85;100.00
74075;BME280;62428;51.412;5.432;2023-08-01T06:29:47;99833.59;;;15.82;100.00
74075;BME280;62428;51.412;5.432;2023-08-01T06:32:12;99830.88;;;15.82;100.00
74075;BME280;62428;51.412;5.432;2023-08-01T06:34:37;99834.00;;;15.84;100.00
74075;BME280;62428;51.412;5.432;2023-08-01T06:37:03;99836.03;;;15.87;100.00
74075;BME280;62428;51.412;5.432;2023-08-01T06:39:29;99836.13;;;15.91;100.00
74075;BME280;62428;51.412;5.432;2023-08-01T06:41:55;99843.13;;;15.92;100.00
74075;BME280;62428;51.412;5.432;2023-08-01T06:44:20;99841.53;;;15.91;100.00
74075;BME280;62428;51.412;5.432;2023-08-01T06:46:46;99845.75;;;15.88;100.00
74075;BME280;62428;51.412;5.432;2023-08-01T06:49:11;99848.03;;;15.86;100.00
74075;BME280;62428;51.412;5.432;2023-08-01T06:51:37;99845.22;;;15.83;100.00
74075;BME280;62428;51.412;5.432;2023-08-01T06:54:02;99845.56;;;15.81;100.00
74075;BME280;62428;51.412;5.432;2023-08-01T06:56:28;99844.31;;;15.79;100.00
74075;BME280;62428;51.412;5.432;2023-08-01T06:58:53;99845.91;;;15.80;100.00
74075;BME280;62428;51.412;5.432;2023-08-01T07:01:18;99848.78;;;15.87;100.00
74075;BME280;62428;51.412;5.432;2023-08-01T07:03:44;99842.69;;;15.90;100.00
74075;BME280;62428;51.412;5.432;2023-08-01T07:06:10;99846.59;;;15.92;100.00
74075;BME280;62428;51.412;5.432;2023-08-01T07:08:36;99851.66;;;15.94;100.00
74075;BME280;62428;51.412;5.432;2023-08-01T07:11:01;99851.41;;;15.99;100.00
74075;BME280;62428;51.412;5.432;2023-08-01T07:13:27;99855.38;;;16.21;100.00
74075;BME280;62428;51.412;5.432;2023-08-01T07:15:53;99858.50;;;16.39;100.00
74075;BME280;62428;51.412;5.432;2023-08-01T07:18:18;99857.84;;;16.46;100.00
74075;BME280;62428;51.412;5.432;2023-08-01T07:20:44;99855.91;;;16.46;100.00
74075;BME280;62428;51.412;5.432;2023-08-01T07:23:09;99869.75;;;16.41;100.00
74075;BME280;62428;51.412;5.432;2023-08-01T07:25:35;99863.53;;;16.41;100.00
74075;BME280;62428;51.412;5.432;2023-08-01T07:28:01;99863.53;;;16.41;100.00
74075;BME280;62428;51.412;5.432;2023-08-01T07:30:27;99861.63;;;16.41;100.00
74075;BME280;62428;51.412;5.432;2023-08-01T07:32:53;99869.03;;;16.44;100.00
74075;BME280;62428;51.412;5.432;2023-08-01T07:35:18;99860.72;;;16.53;100.00
74075;BME280;62428;51.412;5.432;2023-08-01T07:37:43;99864.16;;;16.69;100.00
74075;BME280;62428;51.412;5.432;2023-08-01T07:40:09;99863.03;;;16.90;100.00
74075;BME280;62428;51.412;5.432;2023-08-01T07:42:35;99862.75;;;16.95;100.00
74075;BME280;62428;51.412;5.432;2023-08-01T07:45:00;99867.19;;;17.03;100.00
74075;BME280;62428;51.412;5.432;2023-08-01T07:47:26;99873.78;;;17.25;100.00
74075;BME280;62428;51.412;5.432;2023-08-01T07:49:52;99881.25;;;17.32;100.00
74075;BME280;62428;51.412;5.432;2023-08-01T07:52:17;99881.19;;;17.28;100.00
74075;BME280;62428;51.412;5.432;2023-08-01T07:54:43;99882.78;;;17.29;100.00
74075;BME280;62428;51.412;5.432;2023-08-01T07:57:08;99886.88;;;17.43;100.00
74075;BME280;62428;51.412;5.432;2023-08-01T07:59:33;99896.91;;;17.39;100.00
74075;BME280;62428;51.412;5.432;2023-08-01T08:01:59;99888.13;;;17.26;100.00
74075;BME280;62428;51.412;5.432;2023-08-01T08:04:24;99885.94;;;17.12;100.00
74075;BME280;62428;51.412;5.432;2023-08-01T08:06:50;99884.09;;;16.97;100.00
74075;BME280;62428;51.412;5.432;2023-08-01T08:09:17;99882.00;;;16.90;100.00
74075;BME280;62428;51.412;5.432;2023-08-01T08:11:42;99877.75;;;17.08;100.00
74075;BME280;62428;51.412;5.432;2023-08-01T08:14:08;99884.78;;;17.33;100.00
74075;BME280;62428;51.412;5.432;2023-08-01T08:16:33;99884.84;;;17.36;100.00
74075;BME280;62428;51.412;5.432;2023-08-01T08:18:59;99885.13;;;17.31;100.00
74075;BME280;62428;51.412;5.432;2023-08-01T08:21:24;99888.13;;;17.26;100.00
74075;BME280;62428;51.412;5.432;2023-08-01T08:23:50;99895.78;;;17.20;100.00
74075;BME280;62428;51.412;5.432;2023-08-01T08:26:15;99889.59;;;17.20;100.00
74075;BME280;62428;51.412;5.432;2023-08-01T08:28:40;99886.81;;;17.39;100.00
74075;BME280;62428;51.412;5.432;2023-08-01T08:31:07;99891.63;;;17.69;100.00
74075;BME280;62428;51.412;5.432;2023-08-01T08:33:33;99884.50;;;17.84;100.00
74075;BME280;62428;51.412;5.432;2023-08-01T08:35:58;99886.56;;;17.91;100.00
74075;BME280;62428;51.412;5.432;2023-08-01T08:38:24;99891.19;;;17.90;100.00
74075;BME280;62428;51.412;5.432;2023-08-01T08:41:05;99893.16;;;17.90;100.00
74075;BME280;62428;51.412;5.432;2023-08-01T08:43:32;99909.38;;;17.86;100.00
74075;BME280;62428;51.412;5.432;2023-08-01T08:46:00;99899.94;;;17.80;100.00
74075;BME280;62428;51.412;5.432;2023-08-01T08:48:28;99898.66;;;17.74;100.00
74075;BME280;62428;51.412;5.432;2023-08-01T08:50:54;99901.25;;;17.66;100.00
74075;BME280;62428;51.412;5.432;2023-08-01T08:53:22;99898.19;;;17.68;100.00
74075;BME280;62428;51.412;5.432;2023-08-01T08:55:48;99891.06;;;17.83;99.33
74075;BME280;62428;51.412;5.432;2023-08-01T08:58:13;99894.72;;;17.91;98.74
74075;BME280;62428;51.412;5.432;2023-08-01T09:00:40;99902.91;;;17.94;97.00
74075;BME280;62428;51.412;5.432;2023-08-01T09:03:06;99890.97;;;17.99;94.27
74075;BME280;62428;51.412;5.432;2023-08-01T09:05:40;99888.00;;;18.08;95.83
74075;BME280;62428;51.412;5.432;2023-08-01T09:08:18;99900.84;;;18.11;96.59
74075;BME280;62428;51.412;5.432;2023-08-01T09:10:45;99889.53;;;18.09;96.02
74075;BME280;62428;51.412;5.432;2023-08-01T09:13:10;99904.19;;;18.00;94.95
74075;BME280;62428;51.412;5.432;2023-08-01T09:15:36;99902.19;;;17.97;94.48
74075;BME280;62428;51.412;5.432;2023-08-01T09:18:06;99899.81;;;17.96;94.03
74075;BME280;62428;51.412;5.432;2023-08-01T09:20:40;99906.78;;;17.93;95.07
74075;BME280;62428;51.412;5.432;2023-08-01T09:23:08;99911.88;;;17.95;96.11
74075;BME280;62428;51.412;5.432;2023-08-01T09:25:35;99909.19;;;17.98;95.69
74075;BME280;62428;51.412;5.432;2023-08-01T09:28:00;99907.31;;;18.02;96.56
74075;BME280;62428;51.412;5.432;2023-08-01T09:30:26;99912.03;;;18.05;95.73
74075;BME280;62428;51.412;5.432;2023-08-01T09:32:54;99921.03;;;18.10;95.78
74075;BME280;62428;51.412;5.432;2023-08-01T09:35:19;99919.84;;;18.11;93.51
74075;BME280;62428;51.412;5.432;2023-08-01T09:37:46;99924.88;;;18.09;92.41
74075;BME280;62428;51.412;5.432;2023-08-01T09:40:13;99928.63;;;18.00;90.57
74075;BME280;62428;51.412;5.432;2023-08-01T09:42:40;99918.44;;;17.94;90.99
74075;BME280;62428;51.412;5.432;2023-08-01T09:45:16;99921.50;;;17.92;91.39
74075;BME280;62428;51.412;5.432;2023-08-01T09:47:43;99926.28;;;17.99;91.12
74075;BME280;62428;51.412;5.432;2023-08-01T09:50:09;99926.81;;;18.08;91.15
74075;BME280;62428;51.412;5.432;2023-08-01T09:52:35;99924.22;;;18.15;90.73
74075;BME280;62428;51.412;5.432;2023-08-01T09:55:00;99915.84;;;18.28;90.35
74075;BME280;62428;51.412;5.432;2023-08-01T09:57:29;99918.78;;;18.42;90.67
74075;BME280;62428;51.412;5.432;2023-08-01T09:59:58;99917.38;;;18.52;90.77
74075;BME280;62428;51.412;5.432;2023-08-01T10:02:25;99922.19;;;18.62;90.29
74075;BME280;62428;51.412;5.432;2023-08-01T10:04:57;99920.28;;;18.66;89.09
74075;BME280;62428;51.412;5.432;2023-08-01T10:07:28;99922.63;;;18.68;88.57
74075;BME280;62428;51.412;5.432;2023-08-01T10:09:54;99930.78;;;18.68;87.45
74075;BME280;62428;51.412;5.432;2023-08-01T10:12:22;99925.72;;;18.66;87.77
74075;BME280;62428;51.412;5.432;2023-08-01T10:14:48;99926.97;;;18.72;89.29
74075;BME280;62428;51.412;5.432;2023-08-01T10:17:14;99930.50;;;18.76;87.42
74075;BME280;62428;51.412;5.432;2023-08-01T10:19:41;99932.44;;;18.76;85.74
74075;BME280;62428;51.412;5.432;2023-08-01T10:22:08;99935.47;;;18.71;85.46
74075;BME280;62428;51.412;5.432;2023-08-01T10:24:35;99932.31;;;18.65;85.12
74075;BME280;62428;51.412;5.432;2023-08-01T10:27:21;99924.94;;;18.66;88.38
74075;BME280;62428;51.412;5.432;2023-08-01T10:29:59;99937.88;;;18.76;87.72
74075;BME280;62428;51.412;5.432;2023-08-01T10:32:39;99943.03;;;18.81;88.08
74075;BME280;62428;51.412;5.432;2023-08-01T10:35:05;99937.78;;;18.95;86.86
74075;BME280;62428;51.412;5.432;2023-08-01T10:37:49;99943.50;;;19.17;86.38
74075;BME280;62428;51.412;5.432;2023-08-01T10:40:15;99938.13;;;19.24;81.45
74075;BME280;62428;51.412;5.432;2023-08-01T10:42:42;99948.63;;;19.26;80.97
74075;BME280;62428;51.412;5.432;2023-08-01T10:45:19;99938.72;;;19.44;82.39
74075;BME280;62428;51.412;5.432;2023-08-01T10:47:45;99938.41;;;19.53;80.86
74075;BME280;62428;51.412;5.432;2023-08-01T10:50:17;99937.44;;;19.72;82.09
74075;BME280;62428;51.412;5.432;2023-08-01T10:52:43;99935.31;;;19.92;79.99
74075;BME280;62428;51.412;5.432;2023-08-01T10:55:09;99946.22;;;19.92;77.33
74075;BME280;62428;51.412;5.432;2023-08-01T10:57:36;99946.91;;;19.82;76.17
74075;BME280;62428;51.412;5.432;2023-08-01T11:00:02;99952.28;;;19.74;78.79
74075;BME280;62428;51.412;5.432;2023-08-01T11:02:37;99949.09;;;19.69;78.19
74075;BME280;62428;51.412;5.432;2023-08-01T11:05:04;99953.31;;;19.63;75.95
74075;BME280;62428;51.412;5.432;2023-08-01T11:07:30;99960.66;;;19.58;79.16
74075;BME280;62428;51.412;5.432;2023-08-01T11:12:34;99955.56;;;19.53;77.05
74075;BME280;62428;51.412;5.432;2023-08-01T11:15:01;99961.75;;;19.50;76.90
74075;BME280;62428;51.412;5.432;2023-08-01T11:17:26;99972.28;;;19.52;77.81
74075;BME280;62428;51.412;5.432;2023-08-01T11:20:00;99961.53;;;19.66;77.45
74075;BME280;62428;51.412;5.432;2023-08-01T11:22:25;99955.47;;;19.84;78.03
74075;BME280;62428;51.412;5.432;2023-08-01T11:24:51;99957.25;;;20.06;76.79
74075;BME280;62428;51.412;5.432;2023-08-01T11:27:16;99957.78;;;20.26;75.81
74075;BME280;62428;51.412;5.432;2023-08-01T11:29:41;99961.78;;;20.43;74.59
74075;BME280;62428;51.412;5.432;2023-08-01T11:32:07;99957.50;;;20.42;72.08
74075;BME280;62428;51.412;5.432;2023-08-01T11:34:40;99952.75;;;20.32;75.24
74075;BME280;62428;51.412;5.432;2023-08-01T11:37:06;99967.22;;;20.40;73.16
74075;BME280;62428;51.412;5.432;2023-08-01T11:39:32;99972.75;;;20.50;69.71
74075;BME280;62428;51.412;5.432;2023-08-01T11:41:57;99979.72;;;20.44;69.58
74075;BME280;62428;51.412;5.432;2023-08-01T11:44:24;99980.47;;;20.38;68.79
74075;BME280;62428;51.412;5.432;2023-08-01T11:46:49;99975.34;;;20.32;68.83
74075;BME280;62428;51.412;5.432;2023-08-01T11:49:15;99983.09;;;20.27;67.53
74075;BME280;62428;51.412;5.432;2023-08-01T11:51:41;99979.56;;;20.23;68.79
74075;BME280;62428;51.412;5.432;2023-08-01T11:54:08;99983.03;;;20.20;67.62
74075;BME280;62428;51.412;5.432;2023-08-01T11:56:36;99989.00;;;20.36;70.45
74075;BME280;62428;51.412;5.432;2023-08-01T11:59:15;99987.31;;;20.69;70.66
74075;BME280;62428;51.412;5.432;2023-08-01T12:01:45;99976.91;;;20.92;69.28
74075;BME280;62428;51.412;5.432;2023-08-01T12:04:11;99994.16;;;21.07;67.82
74075;BME280;62428;51.412;5.432;2023-08-01T12:06:37;99996.16;;;21.18;64.11
74075;BME280;62428;51.412;5.432;2023-08-01T12:09:11;99990.31;;;21.26;65.79
74075;BME280;62428;51.412;5.432;2023-08-01T12:11:38;99990.72;;;21.25;64.04
74075;BME280;62428;51.412;5.432;2023-08-01T12:14:08;99987.56;;;21.16;66.30
74075;BME280;62428;51.412;5.432;2023-08-01T12:16:35;100005.81;;;21.04;64.63
74075;BME280;62428;51.412;5.432;2023-08-01T12:19:01;99998.41;;;21.01;63.27
74075;BME280;62428;51.412;5.432;2023-08-01T12:21:27;100000.00;;;21.06;63.36
74075;BME280;62428;51.412;5.432;2023-08-01T12:23:52;99998.06;;;21.13;64.36
74075;BME280;62428;51.412;5.432;2023-08-01T12:26:18;99999.28;;;21.20;66.47
74075;BME280;62428;51.412;5.432;2023-08-01T12:28:43;99990.72;;;21.25;65.96
74075;BME280;62428;51.412;5.432;2023-08-01T12:31:08;99989.16;;;21.24;64.29
74075;BME280;62428;51.412;5.432;2023-08-01T12:33:34;99990.31;;;21.30;65.84
74075;BME280;62428;51.412;5.432;2023-08-01T12:35:59;99986.84;;;21.40;64.49
74075;BME280;62428;51.412;5.432;2023-08-01T12:38:26;100001.34;;;21.52;64.31
74075;BME280;62428;51.412;5.432;2023-08-01T12:40:51;99997.91;;;21.69;66.10
74075;BME280;62428;51.412;5.432;2023-08-01T12:43:17;100000.63;;;21.69;65.65
74075;BME280;62428;51.412;5.432;2023-08-01T12:45:42;99997.47;;;21.56;62.53
74075;BME280;62428;51.412;5.432;2023-08-01T12:48:08;100003.63;;;21.39;64.52
74075;BME280;62428;51.412;5.432;2023-08-01T12:50:33;100007.53;;;21.30;62.43